Time;durP1;ratioP1;P1;durP2;ratioP2;P2;SDS_P1;SDS_P2;PMS_P1;PMS_P2;Temp;Humidity;BMP_temperature;BMP_pressure;BME280_temperature;BME280_humidity;BME280_pressure;Samples;Min_cycle;Max_cycle;Signal;HPM_P1;HPM_P2
2022/09/10 00:01:32;;;;;;;9.05;4.35;;;;;;;14.44;100.00;100730.50;5085084;28;20131;-75
2022/09/10 00:03:58;;;;;;;9.10;3.95;;;;;;;14.45;100.00;100724.78;5093824;28;20024;-77
2022/09/10 00:06:26;;;;;;;10.10;4.78;;;;;;;14.47;100.00;100732.69;5093957;28;20078;-75
2022/09/10 00:08:55;;;;;;;14.00;4.72;;;;;;;14.41;100.00;100717.38;5081321;28;20038;-77
2022/09/10 00:11:20;;;;;;;15.10;4.82;;;;;;;14.44;100.00;100722.31;5114026;28;20027;-77
2022/09/10 00:13:46;;;;;;;15.10;5.13;;;;;;;14.45;100.00;100721.25;5096142;28;20036;-76
2022/09/10 00:16:20;;;;;;;11.98;4.20;;;;;;;14.43;100.00;100707.91;5095024;28;20031;-78
2022/09/10 00:18:47;;;;;;;14.18;4.18;;;;;;;14.43;100.00;100720.66;5095512;28;20392;-77
2022/09/10 00:21:14;;;;;;;13.65;4.13;;;;;;;14.44;100.00;100720.41;5113736;28;20027;-77
2022/09/10 00:23:42;;;;;;;10.55;3.88;;;;;;;14.43;100.00;100715.22;5095877;28;20026;-78
2022/09/10 00:26:22;;;;;;;10.65;4.28;;;;;;;14.40;100.00;100715.72;5086564;28;20028;-76
2022/09/10 00:29:00;;;;;;;12.48;4.65;;;;;;;14.40;100.00;100707.56;5095194;28;20031;-75
2022/09/10 00:31:37;;;;;;;11.73;4.90;;;;;;;14.42;100.00;100714.41;5095543;28;20080;-77
2022/09/10 00:34:04;;;;;;;9.85;4.50;;;;;;;14.41;100.00;100718.19;5095442;28;20031;-76
2022/09/10 00:36:33;;;;;;;10.50;4.30;;;;;;;14.36;100.00;100709.97;5095593;28;20028;-76
2022/09/10 00:39:02;;;;;;;14.23;4.90;;;;;;;14.40;100.00;100721.19;5094892;28;20019;-75
2022/09/10 00:41:32;;;;;;;15.05;4.75;;;;;;;14.35;100.00;100711.88;5112347;28;20032;-77
2022/09/10 00:44:06;;;;;;;12.45;4.30;;;;;;;14.39;100.00;100719.53;5113815;28;20080;-77
2022/09/10 00:46:42;;;;;;;17.55;5.32;;;;;;;14.43;100.00;100717.94;5094374;28;20031;-76
2022/09/10 00:49:16;;;;;;;15.25;4.60;;;;;;;14.36;100.00;100710.78;5112555;28;20065;-76
2022/09/10 00:51:44;;;;;;;13.30;4.80;;;;;;;14.39;100.00;100716.81;5113883;28;20032;-77
2022/09/10 00:54:10;;;;;;;12.13;4.55;;;;;;;14.42;100.00;100716.28;5095111;28;20031;-76
2022/09/10 00:56:36;;;;;;;10.48;4.65;;;;;;;14.42;100.00;100719.00;5095242;28;20031;-76
2022/09/10 00:59:03;;;;;;;8.48;4.80;;;;;;;14.41;100.00;100715.47;5094460;28;20023;-77
2022/09/10 01:01:33;;;;;;;11.13;5.22;;;;;;;14.42;100.00;100724.47;5084536;28;20434;-75
2022/09/10 01:03:59;;;;;;;13.77;4.75;;;;;;;14.43;100.00;100715.22;5093016;28;20030;-75
2022/09/10 01:06:24;;;;;;;13.07;5.45;;;;;;;14.46;100.00;100733.78;5098006;28;20077;-77
2022/09/10 01:08:50;;;;;;;11.73;5.25;;;;;;;14.46;100.00;100728.31;5094333;28;21907;-77
2022/09/10 01:11:33;;;;;;;10.82;5.13;;;;;;;14.48;100.00;100734.34;5094713;28;20387;-77
2022/09/10 01:14:15;;;;;;;13.75;5.15;;;;;;;14.50;100.00;100727.56;5094894;28;20080;-77
2022/09/10 01:16:56;;;;;;;;;;;;;;;14.59;100.00;100741.56;5095493;28;20055;-77
2022/09/10 01:19:56;;;;;;;12.80;5.32;;;;;;;14.56;100.00;100733.91;5112000;28;19933;-77
2022/09/10 01:22:59;;;;;;;10.70;5.65;;;;;;;14.56;100.00;100731.19;5113051;28;20392;-76
2022/09/10 01:25:36;;;;;;;14.45;5.43;;;;;;;14.53;100.00;100723.53;5112653;28;20103;-77
2022/09/10 01:28:09;;;;;;;12.80;6.18;;;;;;;14.58;100.00;100734.47;5110282;28;20381;-77
2022/09/10 01:30:41;;;;;;;16.52;6.07;;;;;;;14.55;100.00;100734.97;5094763;28;20396;-75
2022/09/10 01:33:21;;;;;;;14.25;5.72;;;;;;;14.57;100.00;100738.28;5112818;28;20054;-77
2022/09/10 01:35:56;;;;;;;17.00;6.25;;;;;;;14.52;100.00;100735.47;5113033;28;20059;-76
2022/09/10 01:38:37;;;;;;;13.40;6.03;;;;;;;14.57;100.00;100730.09;5093631;28;20069;-75
2022/09/10 01:41:03;;;;;;;12.48;5.93;;;;;;;14.54;100.00;100723.25;5095033;28;20358;-75
2022/09/10 01:43:28;;;;;;;17.23;6.57;;;;;;;14.52;100.00;100719.13;5112489;28;20023;-76
2022/09/10 01:46:19;;;;;;;14.63;6.35;;;;;;;14.58;100.00;100728.19;5094584;28;20085;-77
2022/09/10 01:49:25;;;;;;;15.93;6.47;;;;;;;14.60;100.00;100735.03;5092761;28;20039;-75
2022/09/10 01:52:17;;;;;;;11.57;6.55;;;;;;;14.61;100.00;100725.00;5094469;28;20032;-75
2022/09/10 01:54:58;;;;;;;20.77;7.88;;;;;;;14.62;100.00;100734.81;5094675;28;20609;-76
2022/09/10 01:57:51;;;;;;;16.70;6.75;;;;;;;14.62;100.00;100730.19;5093680;28;20024;-77
2022/09/10 02:00:18;;;;;;;16.17;6.80;;;;;;;14.59;100.00;100727.94;5111777;28;20054;-77
2022/09/10 02:03:10;;;;;;;17.65;6.93;;;;;;;14.58;100.00;100731.72;5093714;28;20070;-75
2022/09/10 02:05:40;;;;;;;16.80;6.85;;;;;;;14.61;100.00;100725.81;5091866;28;20046;-76
2022/09/10 02:08:17;;;;;;;21.52;7.03;;;;;;;14.58;100.00;100723.56;5105125;28;20042;-77
2022/09/10 02:10:55;;;;;;;17.48;7.85;;;;;;;14.60;100.00;100721.44;5094379;28;20058;-76
2022/09/10 02:13:22;;;;;;;17.60;7.88;;;;;;;14.59;100.00;100719.78;5112418;28;20031;-77
2022/09/10 02:15:51;;;;;;;17.80;7.47;;;;;;;14.62;100.00;100713.03;5094285;28;20038;-76
2022/09/10 02:18:18;;;;;;;16.58;7.35;;;;;;;14.62;100.00;100713.84;5093258;28;20028;-75
2022/09/10 02:20:48;;;;;;;16.67;8.18;;;;;;;14.59;100.00;100703.44;5112306;28;20040;-75
2022/09/10 02:23:17;;;;;;;17.30;7.57;;;;;;;14.63;100.00;100711.94;5093746;28;20024;-75
2022/09/10 02:25:43;;;;;;;17.63;7.65;;;;;;;14.62;100.00;100708.41;5112325;28;20028;-76
2022/09/10 02:28:12;;;;;;;20.77;7.65;;;;;;;14.63;100.00;100710.06;5110761;28;20036;-78
2022/09/10 02:30:37;;;;;;;17.63;8.23;;;;;;;14.61;100.00;100704.03;5092054;28;20035;-73
2022/09/10 02:33:03;;;;;;;17.17;7.75;;;;;;;14.60;100.00;100704.25;5074070;28;20038;-76
2022/09/10 02:35:29;;;;;;;21.42;8.02;;;;;;;14.62;100.00;100710.31;5091661;28;20103;-77
2022/09/10 02:37:56;;;;;;;14.10;7.55;;;;;;;14.64;100.00;100711.69;5100305;28;20039;-76
2022/09/10 02:40:26;;;;;;;15.23;7.30;;;;;;;14.61;100.00;100708.66;5111818;28;20501;-76
2022/09/10 02:42:51;;;;;;;15.02;7.25;;;;;;;14.58;100.00;100699.06;5093777;28;20030;-77
2022/09/10 02:45:19;;;;;;;15.48;7.63;;;;;;;14.62;100.00;100708.41;5111897;28;20371;-77
2022/09/10 02:47:44;;;;;;;15.20;7.93;;;;;;;14.65;100.00;100704.34;5093344;28;20357;-76
2022/09/10 02:50:10;;;;;;;19.23;8.00;;;;;;;14.61;100.00;100697.75;5111840;28;20035;-77
2022/09/10 02:52:36;;;;;;;17.85;7.85;;;;;;;14.63;100.00;100715.50;5115743;28;20024;-75
2022/09/10 02:55:01;;;;;;;16.73;8.07;;;;;;;14.62;100.00;100702.13;5097405;28;20428;-77
2022/09/10 02:57:26;;;;;;;15.95;7.95;;;;;;;14.59;100.00;100708.88;5096528;28;20127;-76
2022/09/10 02:59:55;;;;;;;20.38;8.50;;;;;;;14.66;100.00;100716.88;5115546;28;20020;-76
2022/09/10 03:02:21;;;;;;;15.00;8.48;;;;;;;14.62;100.00;100702.13;5079143;28;20105;-77
2022/09/10 03:04:46;;;;;;;22.27;8.40;;;;;;;14.66;100.00;100709.53;5095232;28;20040;-78
2022/09/10 03:07:19;;;;;;;13.77;8.52;;;;;;;14.64;100.00;100700.78;5076921;28;20472;-77
2022/09/10 03:09:45;;;;;;;18.80;8.93;;;;;;;14.67;100.00;100711.19;5095353;28;20073;-77
2022/09/10 03:12:10;;;;;;;17.38;8.88;;;;;;;14.65;100.00;100710.59;5097259;28;20032;-76
2022/09/10 03:14:36;;;;;;;17.65;8.77;;;;;;;14.65;100.00;100713.34;5096860;28;20445;-75
2022/09/10 03:17:02;;;;;;;16.42;8.55;;;;;;;14.70;100.00;100713.41;5096444;28;20028;-75
2022/09/10 03:19:28;;;;;;;18.38;8.60;;;;;;;14.65;100.00;100710.59;5096390;28;20023;-77
2022/09/10 03:21:53;;;;;;;20.92;9.45;;;;;;;14.67;100.00;100711.19;5114967;28;20511;-75
2022/09/10 03:24:19;;;;;;;19.52;9.38;;;;;;;14.67;100.00;100708.47;5114926;28;20479;-76
2022/09/10 03:26:44;;;;;;;19.65;9.18;;;;;;;14.68;100.00;100712.00;5114599;28;20392;-77
2022/09/10 03:29:12;;;;;;;15.13;9.20;;;;;;;14.68;100.00;100703.84;5103302;28;20027;-75
2022/09/10 03:31:38;;;;;;;19.50;9.93;;;;;;;14.70;100.00;100710.69;5096763;28;20028;-77
2022/09/10 03:34:05;;;;;;;18.63;9.57;;;;;;;14.67;100.00;100703.03;5092188;28;20044;-78
2022/09/10 03:36:30;;;;;;;18.58;9.98;;;;;;;14.70;100.00;100709.84;5094299;28;20477;-77
2022/09/10 03:38:57;;;;;;;19.10;10.23;;;;;;;14.68;100.00;100706.56;5112478;28;20031;-77
2022/09/10 03:41:23;;;;;;;21.15;10.73;;;;;;;14.69;100.00;100702.78;5096400;28;20032;-75
2022/09/10 03:43:52;;;;;;;19.33;10.07;;;;;;;14.70;100.00;100696.22;5096397;28;20038;-77
2022/09/10 03:46:17;;;;;;;26.23;10.98;;;;;;;14.74;100.00;100702.00;5096424;28;20028;-75
2022/09/10 03:48:42;;;;;;;23.80;10.98;;;;;;;14.71;100.00;100700.59;5095811;28;20080;-76
2022/09/10 03:51:09;;;;;;;22.17;11.18;;;;;;;14.73;100.00;100697.63;5114737;28;20460;-76
2022/09/10 03:53:35;;;;;;;20.33;11.00;;;;;;;14.70;100.00;100697.06;5114648;28;20031;-77
2022/09/10 03:56:45;;;;;;;19.48;11.05;;;;;;;14.78;100.00;100694.94;5094867;28;20023;-77
2022/09/10 03:59:23;;;;;;;18.35;10.55;;;;;;;14.74;100.00;100700.09;5079571;28;20468;-76
2022/09/10 04:01:49;;;;;;;21.38;10.65;;;;;;;14.70;100.00;100696.22;5085518;28;20056;-76
2022/09/10 04:11:26;;;;;;;23.17;11.25;;;;;;;14.73;100.00;100694.91;5092349;28;20055;-76
2022/09/10 04:17:13;;;;;;;20.20;11.00;;;;;;;14.69;100.00;100681.78;5110530;28;20157;-75
2022/09/10 04:19:39;;;;;;;21.10;10.65;;;;;;;14.74;100.00;100688.38;5095094;28;20110;-77
2022/09/10 04:25:26;;;;;;;21.63;11.73;;;;;;;14.76;100.00;100686.22;5112468;28;20035;-76
2022/09/10 04:31:07;;;;;;;22.48;11.18;;;;;;;14.73;100.00;100675.84;5103302;28;20046;-77
2022/09/10 04:33:32;;;;;;;19.75;11.27;;;;;;;14.73;100.00;100676.63;5113385;28;20028;-76
2022/09/10 04:36:42;;;;;;;19.17;11.45;;;;;;;14.75;100.00;100676.38;5093934;28;20051;-76
2022/09/10 04:39:10;;;;;;;20.00;12.00;;;;;;;14.73;100.00;100675.84;5110833;28;20053;-77
2022/09/10 04:41:35;;;;;;;19.95;11.05;;;;;;;14.72;100.00;100688.63;5109449;28;20055;-77
2022/09/10 04:44:03;;;;;;;21.17;11.77;;;;;;;14.74;100.00;100688.38;5091821;28;20148;-77
2022/09/10 04:46:28;;;;;;;21.73;11.77;;;;;;;14.71;100.00;100679.63;5093242;28;20032;-75
2022/09/10 04:48:54;;;;;;;20.02;11.90;;;;;;;14.69;100.00;100698.13;5093675;28;20030;-77
2022/09/10 04:51:45;;;;;;;23.70;12.07;;;;;;;14.72;100.00;100694.09;5095388;28;20028;-79
2022/09/10 04:54:12;;;;;;;20.35;11.73;;;;;;;14.71;100.00;100692.44;5112284;28;20023;-78
2022/09/10 04:56:37;;;;;;;19.10;11.73;;;;;;;14.69;100.00;100691.88;5098690;28;20035;-78
2022/09/10 04:59:03;;;;;;;18.65;11.80;;;;;;;14.71;100.00;100695.16;5093315;28;20027;-77
2022/09/10 05:01:30;;;;;;;20.40;11.85;;;;;;;14.74;100.00;100691.09;5084314;28;20052;-76
2022/09/10 05:03:58;;;;;;;17.95;11.82;;;;;;;14.73;100.00;100698.44;5074347;28;20051;-77
2022/09/10 05:06:26;;;;;;;22.27;12.30;;;;;;;14.73;100.00;100703.06;5074223;28;20039;-76
2022/09/10 05:08:51;;;;;;;19.95;12.25;;;;;;;14.74;100.00;100705.53;5092486;28;20038;-76
2022/09/10 05:11:20;;;;;;;21.67;13.05;;;;;;;14.71;100.00;100698.69;5113320;28;20056;-76
2022/09/10 05:13:45;;;;;;;20.45;12.23;;;;;;;14.74;100.00;100699.28;5112930;28;20030;-76
2022/09/10 05:16:11;;;;;;;25.30;12.75;;;;;;;14.74;100.00;100700.09;5094022;28;20032;-76
2022/09/10 05:18:39;;;;;;;21.40;13.23;;;;;;;14.71;100.00;100695.97;5092478;28;20038;-76
2022/09/10 05:21:07;;;;;;;24.88;13.20;;;;;;;14.75;100.00;100682.69;5094655;28;20038;-77
2022/09/10 05:23:33;;;;;;;21.65;13.48;;;;;;;14.75;100.00;100693.56;5112675;28;20067;-77
2022/09/10 05:25:58;;;;;;;21.60;13.50;;;;;;;14.75;100.00;100696.28;5112850;28;20032;-76
2022/09/10 05:28:26;;;;;;;22.92;13.98;;;;;;;14.75;100.00;100698.19;5112462;28;20024;-77
2022/09/10 05:30:51;;;;;;;22.85;13.93;;;;;;;14.77;100.00;100694.13;5094837;28;20059;-76
2022/09/10 05:33:17;;;;;;;26.55;14.98;;;;;;;14.74;100.00;100685.66;5113293;28;20031;-76
2022/09/10 05:35:42;;;;;;;21.45;14.30;;;;;;;14.78;100.00;100692.22;5110821;28;20028;-76
2022/09/10 05:38:11;;;;;;;23.10;13.98;;;;;;;14.79;100.00;100693.88;5093755;28;20040;-77
2022/09/10 05:40:36;;;;;;;23.85;14.50;;;;;;;14.77;100.00;100690.59;5093810;28;20043;-76
2022/09/10 05:43:02;;;;;;;21.98;15.18;;;;;;;14.80;100.00;100690.06;5112610;28;20047;-76
2022/09/10 05:45:27;;;;;;;24.25;15.02;;;;;;;14.82;100.00;100696.88;5093833;28;20031;-76
2022/09/10 05:47:53;;;;;;;23.92;16.08;;;;;;;14.86;100.00;100699.94;5111582;28;20035;-77
2022/09/10 05:50:18;;;;;;;23.55;16.35;;;;;;;14.84;100.00;100691.19;5112641;28;20420;-77
2022/09/10 05:52:47;;;;;;;22.10;15.88;;;;;;;14.86;100.00;100691.78;5112699;28;20387;-77
2022/09/10 05:55:12;;;;;;;25.35;16.25;;;;;;;14.86;100.00;100698.03;5112230;28;20032;-75
2022/09/10 05:57:39;;;;;;;23.13;15.52;;;;;;;14.89;100.00;100699.41;5089458;28;20368;-75
2022/09/10 06:00:07;;;;;;;24.35;16.15;;;;;;;14.91;100.00;100704.63;5107100;28;20038;-75
2022/09/10 06:02:32;;;;;;;27.02;15.93;;;;;;;14.90;100.00;100698.34;5092584;28;20098;-75
2022/09/10 06:04:59;;;;;;;20.70;15.02;;;;;;;14.88;100.00;100695.03;5092422;28;20137;-75
2022/09/10 06:07:27;;;;;;;25.30;15.77;;;;;;;14.87;100.00;100704.28;5092277;28;20034;-75
2022/09/10 06:09:52;;;;;;;21.35;14.60;;;;;;;14.89;100.00;100702.16;5109544;28;20058;-75
2022/09/10 06:12:17;;;;;;;25.42;14.85;;;;;;;14.91;100.00;100697.25;5094599;28;20028;-75
2022/09/10 06:14:43;;;;;;;22.95;16.42;;;;;;;14.91;100.00;100699.16;5111758;28;20031;-73
2022/09/10 06:17:08;;;;;;;21.35;15.45;;;;;;;14.91;100.00;100699.16;5112865;28;20035;-74
2022/09/10 06:19:33;;;;;;;21.63;16.17;;;;;;;14.92;100.00;100712.53;5093440;28;20046;-76
2022/09/10 06:21:59;;;;;;;22.92;16.33;;;;;;;14.91;100.00;100699.97;5112553;28;20038;-76
2022/09/10 06:24:24;;;;;;;23.30;16.17;;;;;;;14.91;100.00;100702.69;5111038;28;20150;-76
2022/09/10 06:26:50;;;;;;;24.00;16.48;;;;;;;14.92;100.00;100706.28;5115272;28;20036;-74
2022/09/10 06:29:17;;;;;;;20.20;16.13;;;;;;;14.88;100.00;100708.66;5116604;28;20126;-75
2022/09/10 06:31:43;;;;;;;21.52;16.27;;;;;;;14.89;100.00;100702.16;5116268;28;20028;-75
2022/09/10 06:34:08;;;;;;;23.52;17.42;;;;;;;14.91;100.00;100720.97;5115067;28;20032;-75
2022/09/10 06:36:34;;;;;;;23.83;17.92;;;;;;;14.93;100.00;100710.63;5115905;28;20032;-75
2022/09/10 06:39:00;;;;;;;22.33;17.75;;;;;;;14.96;100.00;100719.13;5116064;28;20019;-76
2022/09/10 06:41:29;;;;;;;23.60;17.80;;;;;;;14.92;100.00;100712.53;5097826;28;20034;-75
2022/09/10 06:43:55;;;;;;;23.27;18.08;;;;;;;14.91;100.00;100719.06;5096271;28;20027;-77
2022/09/10 06:46:21;;;;;;;24.67;17.98;;;;;;;14.93;100.00;100721.50;5102858;28;20066;-78
2022/09/10 06:48:46;;;;;;;26.13;17.30;;;;;;;14.93;100.00;100722.34;5097589;28;20082;-77
2022/09/10 06:51:12;;;;;;;26.00;18.55;;;;;;;14.90;100.00;100717.44;5113621;28;20038;-77
2022/09/10 06:53:39;;;;;;;26.92;19.42;;;;;;;14.93;100.00;100719.63;5115208;28;20442;-76
2022/09/10 06:56:07;;;;;;;27.10;18.90;;;;;;;14.92;100.00;100726.16;5097793;28;20046;-75
2022/09/10 06:58:36;;;;;;;23.25;18.02;;;;;;;14.91;100.00;100727.22;5097530;28;20032;-75
2022/09/10 07:01:08;;;;;;;23.02;17.17;;;;;;;14.96;100.00;100724.56;5109109;28;20048;-80
2022/09/10 07:03:34;;;;;;;23.35;17.40;;;;;;;14.97;100.00;100726.19;5097242;28;20046;-78
2022/09/10 07:06:04;;;;;;;24.77;17.52;;;;;;;14.97;100.00;100720.75;5096683;28;20036;-76
2022/09/10 07:08:30;;;;;;;22.85;17.23;;;;;;;14.98;100.00;100719.66;5115559;28;20038;-76
2022/09/10 07:11:03;;;;;;;19.60;16.90;;;;;;;14.97;100.00;100720.75;5115995;28;20047;-77
2022/09/10 07:13:32;;;;;;;23.50;18.00;;;;;;;15.02;100.00;100728.97;5114825;28;20027;-78
2022/09/10 07:15:57;;;;;;;20.70;17.15;;;;;;;15.01;100.00;100732.78;5097256;28;20039;-78
2022/09/10 07:18:24;;;;;;;22.67;16.10;;;;;;;15.00;100.00;100728.41;5097347;28;20028;-78
2022/09/10 07:20:50;;;;;;;20.52;15.63;;;;;;;15.00;100.00;100739.31;5097258;28;20031;-78
2022/09/10 07:23:18;;;;;;;18.60;15.32;;;;;;;15.03;100.00;100738.78;5114069;28;20101;-78
2022/09/10 07:25:43;;;;;;;18.38;15.23;;;;;;;15.01;100.00;100743.69;5096914;28;20369;-78
2022/09/10 07:28:12;;;;;;;19.38;15.65;;;;;;;15.00;100.00;100755.66;5113897;28;20041;-78
2022/09/10 07:30:42;;;;;;;18.20;16.15;;;;;;;14.99;100.00;100743.13;5096851;28;20048;-77
2022/09/10 07:33:07;;;;;;;20.33;15.98;;;;;;;15.00;100.00;100758.38;5114563;28;20134;-78
2022/09/10 07:35:35;;;;;;;19.08;16.05;;;;;;;15.02;100.00;100742.59;5114754;28;20452;-78
2022/09/10 07:38:01;;;;;;;19.85;16.35;;;;;;;15.06;100.00;100751.91;5110010;28;20023;-77
2022/09/10 07:40:27;;;;;;;20.08;15.95;;;;;;;15.09;100.00;100745.13;5090821;28;20035;-77
2022/09/10 07:42:55;;;;;;;20.73;15.95;;;;;;;15.14;100.00;100749.78;5107797;28;20042;-78
2022/09/10 07:45:20;;;;;;;18.98;16.52;;;;;;;15.17;100.00;100747.38;5094643;28;20024;-78
2022/09/10 07:47:47;;;;;;;22.63;17.42;;;;;;;15.22;100.00;100749.34;5106579;28;20035;-78
2022/09/10 07:50:13;;;;;;;21.30;16.48;;;;;;;15.25;100.00;100748.81;5097908;28;20055;-78
2022/09/10 07:52:39;;;;;;;23.00;17.63;;;;;;;15.28;100.00;100751.03;5090968;28;20027;-79
2022/09/10 07:55:06;;;;;;;19.85;16.10;;;;;;;15.33;100.00;100756.50;5113195;28;20032;-78
2022/09/10 07:57:34;;;;;;;20.10;17.40;;;;;;;15.30;100.00;100762.47;5096254;28;20039;-79
2022/09/10 07:59:59;;;;;;;20.35;16.52;;;;;;;15.35;100.00;100759.81;5114847;28;20039;-77
2022/09/10 08:02:25;;;;;;;18.90;16.83;;;;;;;15.36;100.00;100764.16;5088442;28;20403;-77
2022/09/10 08:04:50;;;;;;;19.52;17.20;;;;;;;15.38;100.00;100763.91;5093760;28;20032;-76
2022/09/10 08:07:16;;;;;;;19.70;16.77;;;;;;;15.42;100.00;100771.31;5096421;28;20084;-77
2022/09/10 08:09:42;;;;;;;22.23;17.88;;;;;;;15.46;100.00;100770.78;5095739;28;20134;-78
2022/09/10 08:12:07;;;;;;;19.55;16.90;;;;;;;15.42;100.00;100765.84;5094131;28;20032;-75
2022/09/10 08:14:32;;;;;;;21.92;18.17;;;;;;;15.50;100.00;100777.38;5095913;28;20039;-77
2022/09/10 08:17:00;;;;;;;21.10;17.88;;;;;;;15.54;100.00;100779.31;5114095;27;20023;-76
2022/09/10 08:19:25;;;;;;;22.95;17.48;;;;;;;15.53;100.00;100782.31;5104723;28;20024;-76
2022/09/10 08:21:51;;;;;;;20.02;17.58;;;;;;;15.56;100.00;100792.69;5108400;28;20039;-76
2022/09/10 08:24:16;;;;;;;21.85;18.42;;;;;;;15.59;100.00;100784.84;5095507;28;20773;-77
2022/09/10 08:26:41;;;;;;;21.05;18.08;;;;;;;15.59;100.00;100793.03;5113288;28;20039;-76
2022/09/10 08:29:07;;;;;;;19.33;17.35;;;;;;;15.59;100.00;100792.19;5095488;28;20117;-75
2022/09/10 08:31:33;;;;;;;18.90;16.88;;;;;;;15.66;100.00;100798.25;5111514;28;20042;-73
2022/09/10 08:33:58;;;;;;;20.02;17.80;;;;;;;15.60;100.00;100794.66;5113977;28;20481;-73
2022/09/10 08:36:24;;;;;;;21.77;18.95;;;;;;;15.67;100.00;100805.34;5112290;28;20113;-73
2022/09/10 08:38:50;;;;;;;18.75;15.75;;;;;;;15.72;100.00;100799.13;5113392;28;20476;-73
2022/09/10 08:41:37;;;;;;;21.15;15.50;;;;;;;15.77;100.00;100808.19;5091828;28;20032;-73
2022/09/10 08:44:08;;;;;;;19.48;15.50;;;;;;;15.75;100.00;100804.88;5113470;28;20027;-73
2022/09/10 08:46:47;;;;;;;17.15;14.05;;;;;;;15.80;100.00;100825.13;5093206;28;20100;-73
2022/09/10 08:49:37;;;;;;;16.95;14.10;;;;;;;15.80;100.00;100823.22;5113579;28;20028;-73
2022/09/10 08:52:19;;;;;;;15.10;13.55;;;;;;;15.83;100.00;100819.16;5075682;28;20032;-73
2022/09/10 08:54:58;;;;;;;16.73;13.57;;;;;;;15.77;100.00;100824.53;5095455;28;20138;-74
2022/09/10 08:57:37;;;;;;;15.73;13.15;;;;;;;15.80;100.00;100833.31;5112475;28;20483;-75
2022/09/10 09:00:04;;;;;;;15.95;12.88;;;;;;;15.79;100.00;100828.94;5111378;28;20090;-75
2022/09/10 09:02:32;;;;;;;16.23;13.48;;;;;;;15.75;100.00;100831.34;5078797;28;20043;-74
2022/09/10 09:05:17;;;;;;;16.63;13.75;;;;;;;15.75;100.00;100834.06;5111560;28;20020;-76
2022/09/10 09:07:44;;;;;;;16.67;13.43;;;;;;;15.62;100.00;100826.31;5113325;28;20032;-76
2022/09/10 09:10:38;;;;;;;17.17;14.10;;;;;;;15.65;100.00;100833.97;5113288;28;20055;-75
2022/09/10 09:13:15;;;;;;;18.52;14.18;;;;;;;15.66;100.00;100844.63;5111406;28;20081;-76
2022/09/10 09:15:50;;;;;;;20.70;14.45;;;;;;;15.65;100.00;100834.78;5091953;28;20023;-76
2022/09/10 09:18:37;;;;;;;18.98;15.07;;;;;;;15.67;100.00;100838.09;5079652;28;20515;-76
2022/09/10 09:21:14;;;;;;;18.40;14.23;;;;;;;15.70;100.00;100836.72;5108547;28;20035;-77
2022/09/10 09:24:09;;;;;;;21.33;15.80;;;;;;;15.72;100.00;100840.84;5081768;28;20082;-76
2022/09/10 09:26:35;;;;;;;22.02;16.00;;;;;;;15.79;100.00;100848.03;5074690;28;20047;-74
2022/09/10 09:29:17;;;;;;;22.17;16.35;;;;;;;15.87;100.00;100839.38;5102794;28;20027;-74
2022/09/10 09:31:50;;;;;;;20.20;16.08;;;;;;;15.89;100.00;100845.38;5108104;28;20035;-75
2022/09/10 09:34:32;;;;;;;20.63;15.75;;;;;;;15.99;100.00;100845.47;5074322;28;20047;-73
2022/09/10 09:37:00;;;;;;;18.65;16.40;;;;;;;15.99;100.00;100845.47;5074632;28;20044;-74
2022/09/10 09:40:02;;;;;;;19.85;16.00;;;;;;;16.08;100.00;100856.72;5085194;28;20031;-73
2022/09/10 09:43:25;;;;;;;19.63;15.82;;;;;;;16.11;100.00;100848.84;5111693;28;20463;-73
2022/09/10 09:45:52;;;;;;;18.48;15.25;;;;;;;16.20;100.00;100851.91;4993506;28;20068;-78
2022/09/10 09:48:19;;;;;;;18.63;14.73;;;;;;;16.21;100.00;100849.97;5010045;28;20069;-79
2022/09/10 09:50:48;;;;;;;18.15;14.70;;;;;;;16.23;100.00;100845.06;5041753;28;20047;-77
2022/09/10 09:53:21;;;;;;;19.30;14.45;;;;;;;16.22;100.00;100855.19;5094658;28;20372;-79
2022/09/10 09:55:52;;;;;;;20.75;14.48;;;;;;;16.22;100.00;100860.66;5109588;28;20221;-79
2022/09/10 09:58:20;;;;;;;17.42;13.45;;;;;;;16.27;100.00;100854.38;5112012;28;20031;-73
2022/09/10 10:01:09;;;;;;;17.10;14.15;;;;;;;16.26;100.00;100858.19;5093847;28;20062;-77
2022/09/10 10:03:57;;;;;;;17.52;13.70;;;;;;;16.24;100.00;100846.72;5078288;28;20361;-77
2022/09/10 10:06:30;;;;;;;16.85;12.73;;;;;;;16.29;100.00;100844.84;5096892;28;20087;-75
2022/09/10 10:09:22;;;;;;;17.83;13.63;;;;;;;16.29;100.00;100846.78;5078394;28;20384;-76
2022/09/10 10:12:04;;;;;;;14.18;12.43;;;;;;;16.35;100.00;100848.44;5109690;28;20394;-78
2022/09/10 10:14:29;;;;;;;18.20;13.57;;;;;;;16.35;100.00;100856.66;5098608;28;20081;-76
2022/09/10 10:16:55;;;;;;;17.83;13.40;;;;;;;16.37;100.00;100868.13;5098306;28;20027;-76
2022/09/10 10:19:36;;;;;;;17.58;12.77;;;;;;;16.46;100.00;100872.00;5098484;28;20277;-75
2022/09/10 10:22:31;;;;;;;16.55;12.43;;;;;;;16.56;100.00;100870.41;5096774;28;20514;-77
2022/09/10 10:24:59;;;;;;;13.90;11.20;;;;;;;16.61;100.00;100852.13;5096230;28;20042;-77
2022/09/10 10:27:31;;;;;;;15.63;11.27;;;;;;;16.70;100.00;100862.53;5098390;28;20024;-75
2022/09/10 10:30:22;;;;;;;17.15;11.65;;;;;;;16.70;100.00;100873.47;5116516;28;20065;-76
2022/09/10 10:32:57;;;;;;;14.85;11.18;;;;;;;16.78;100.00;100856.59;5097250;28;20039;-75
2022/09/10 10:35:31;;;;;;;17.67;11.32;;;;;;;16.79;100.00;100871.91;5115838;28;20043;-75
2022/09/10 10:38:15;;;;;;;14.70;11.10;;;;;;;16.84;100.00;100871.91;5116153;28;20371;-76
2022/09/10 10:40:58;;;;;;;13.43;11.00;;;;;;;16.81;100.00;100873.25;5113758;28;20490;-79
2022/09/10 10:43:35;;;;;;;12.38;11.02;;;;;;;16.80;100.00;100882.56;5083756;28;20435;-82
2022/09/10 10:46:11;;;;;;;16.58;10.35;;;;;;;16.79;100.00;100875.44;5114635;28;20050;-82
2022/09/10 10:49:14;;;;;;;11.20;9.85;;;;;;;16.81;100.00;100877.91;5115742;28;20032;-78
2022/09/10 10:51:55;;;;;;;12.57;8.55;;;;;;;16.87;100.00;100887.00;5081789;28;20447;-79
2022/09/10 10:54:32;;;;;;;12.87;8.60;;;;;;;16.82;100.00;100883.13;5095329;28;20028;-76
2022/09/10 10:57:50;;;;;;;14.60;8.60;;;;;;;16.89;100.00;100893.00;5114977;28;20031;-76
2022/09/10 11:00:17;;;;;;;13.50;7.65;;;;;;;16.81;100.00;100894.31;5109260;28;20027;-76
2022/09/10 11:03:00;;;;;;;13.90;8.57;;;;;;;16.77;100.00;100891.31;5094090;28;20044;-76
2022/09/10 11:05:40;;;;;;;16.45;8.70;;;;;;;16.74;100.00;100883.63;5094790;28;20103;-76
2022/09/10 11:08:13;;;;;;;13.45;7.85;;;;;;;16.70;100.00;100882.50;5097502;28;20361;-76
2022/09/10 11:10:47;;;;;;;12.88;8.05;;;;;;;16.73;100.00;100881.97;5114822;28;20391;-76
2022/09/10 11:13:24;;;;;;;23.40;9.40;;;;;;;16.64;100.00;100872.66;5115753;28;20387;-76
2022/09/10 11:15:58;;;;;;;16.10;7.68;;;;;;;16.63;100.00;100880.00;5096666;28;20032;-76
2022/09/10 11:18:33;;;;;;;13.95;7.68;;;;;;;16.59;100.00;100894.47;5115624;28;20114;-76
2022/09/10 11:21:06;;;;;;;13.88;8.38;;;;;;;16.58;100.00;100901.84;5111807;28;20036;-75
2022/09/10 11:23:44;;;;;;;17.20;8.07;;;;;;;16.55;100.00;100896.09;5102097;28;20024;-75
2022/09/10 11:26:35;;;;;;;13.63;8.25;;;;;;;16.54;100.00;100894.44;5112986;28;20027;-76
2022/09/10 11:29:14;;;;;;;13.95;8.15;;;;;;;16.56;100.00;100890.38;5104472;28;20066;-76
2022/09/10 11:31:48;;;;;;;10.57;7.30;;;;;;;16.53;100.00;100887.31;5115234;28;20026;-76
2022/09/10 11:34:24;;;;;;;14.02;8.70;;;;;;;16.51;100.00;100890.31;5113994;28;20035;-76
2022/09/10 11:37:10;;;;;;;12.15;7.85;;;;;;;16.54;100.00;100897.19;5114709;28;20063;-76
2022/09/10 11:39:40;;;;;;;12.43;8.32;;;;;;;16.50;100.00;100907.81;5095343;28;20031;-77
2022/09/10 11:42:16;;;;;;;15.50;8.20;;;;;;;16.52;100.00;100902.09;5089366;28;20073;-77